Time;durP1;ratioP1;P1;durP2;ratioP2;P2;SDS_P1;SDS_P2;PMS_P1;PMS_P2;Temp;Humidity;BMP_temperature;BMP_pressure;BME280_temperature;BME280_humidity;BME280_pressure;Samples;Min_cycle;Max_cycle;Signal;HPM_P1;HPM_P2
2021/08/23 00:00:25;;;;;;;9.57;6.38;;;;;;;21.66;54.87;100368.91;5086835;28;20059;-21
2021/08/23 00:02:51;;;;;;;12.65;6.75;;;;;;;21.61;54.38;100358.88;5087201;28;20039;-22
2021/08/23 00:05:16;;;;;;;9.13;6.93;;;;;;;21.59;54.71;100369.19;5087122;28;20032;-23
2021/08/23 00:07:42;;;;;;;9.02;6.63;;;;;;;21.51;54.81;100358.16;5087202;28;20498;-22
2021/08/23 00:10:07;;;;;;;10.35;5.90;;;;;;;21.68;54.97;100361.28;5087252;28;20036;-22
2021/08/23 00:12:33;;;;;;;8.45;6.60;;;;;;;21.58;55.60;100370.31;5087340;28;20040;-22
2021/08/23 00:14:58;;;;;;;8.60;6.13;;;;;;;21.23;56.81;100377.63;5087201;28;20032;-22
2021/08/23 00:17:24;;;;;;;10.77;7.05;;;;;;;21.35;56.00;100373.72;5086949;28;20035;-22
2021/08/23 00:19:49;;;;;;;10.98;6.50;;;;;;;21.53;55.62;100361.41;5087112;28;20032;-22
2021/08/23 00:24:56;;;;;;;10.07;7.57;;;;;;;22.11;53.44;100371.41;5087130;28;20078;-22
2021/08/23 00:27:22;;;;;;;11.20;6.63;;;;;;;21.78;54.11;100368.50;5086960;28;20052;-22
2021/08/23 00:29:47;;;;;;;11.20;7.25;;;;;;;21.62;54.75;100365.94;5088747;28;20035;-22
2021/08/23 00:32:13;;;;;;;10.07;6.93;;;;;;;21.98;52.99;100356.63;5090970;28;20038;-22
2021/08/23 00:34:39;;;;;;;12.23;7.15;;;;;;;22.24;52.64;100362.63;5090910;28;20028;-22
2021/08/23 00:37:04;;;;;;;11.02;7.40;;;;;;;22.26;52.39;100355.78;5091304;28;20036;-22
2021/08/23 00:39:30;;;;;;;9.68;7.40;;;;;;;22.17;52.54;100360.22;5091118;28;20028;-22
2021/08/23 00:41:56;;;;;;;11.13;7.43;;;;;;;22.02;52.79;100377.47;5090908;28;20020;-22
2021/08/23 00:44:21;;;;;;;11.00;7.25;;;;;;;22.02;52.86;100369.31;5072438;28;20024;-22
2021/08/23 00:46:46;;;;;;;11.30;8.27;;;;;;;21.89;53.66;100370.03;5090927;28;20035;-22
2021/08/23 00:49:13;;;;;;;13.02;8.18;;;;;;;21.73;53.92;100373.97;5091037;28;20035;-22
2021/08/23 00:51:39;;;;;;;13.10;8.82;;;;;;;21.67;54.19;100368.59;5091006;28;20507;-22
2021/08/23 00:54:04;;;;;;;10.88;7.80;;;;;;;21.06;55.70;100366.31;5072618;28;20035;-21
2021/08/23 00:56:30;;;;;;;12.13;7.75;;;;;;;20.77;56.48;100350.78;5090583;28;20458;-22
2021/08/23 00:58:55;;;;;;;10.90;7.55;;;;;;;20.56;57.75;100363.59;5090099;28;20048;-22
2021/08/23 01:01:36;;;;;;;10.25;8.02;;;;;;;20.82;57.15;100358.91;5090559;28;20090;-22
2021/08/23 01:04:20;;;;;;;11.70;8.18;;;;;;;21.08;56.34;100358.72;5090471;28;20028;-22
2021/08/23 01:06:45;;;;;;;10.77;8.20;;;;;;;20.72;57.79;100366.25;5056969;28;20050;-22
2021/08/23 01:09:12;;;;;;;10.77;7.70;;;;;;;21.09;56.04;100346.00;5090404;28;20495;-23
2021/08/23 01:11:44;;;;;;;9.23;7.75;;;;;;;21.04;56.15;100335.97;5055692;28;20421;-22
2021/08/23 01:14:10;;;;;;;11.18;8.13;;;;;;;20.37;58.57;100336.34;5055884;28;20024;-22
2021/08/23 01:16:35;;;;;;;12.07;7.38;;;;;;;20.47;57.93;100352.53;5090417;28;20027;-22
2021/08/23 01:19:01;;;;;;;11.68;7.82;;;;;;;20.68;57.33;100360.59;5090197;28;20081;-22
2021/08/23 01:21:27;;;;;;;9.68;7.60;;;;;;;21.19;55.59;100352.16;5072003;28;20028;-22
2021/08/23 01:23:54;;;;;;;11.20;7.93;;;;;;;20.70;57.41;100355.72;5071850;28;20024;-22
2021/08/23 01:26:24;;;;;;;11.48;8.30;;;;;;;20.59;57.47;100356.84;5071575;28;20093;-22
2021/08/23 01:29:14;;;;;;;13.65;8.63;;;;;;;21.05;56.38;100357.38;5071851;28;20055;-23
2021/08/23 01:32:12;;;;;;;14.77;8.70;;;;;;;21.36;55.59;100359.06;5071999;28;20082;-22
2021/08/23 01:34:38;;;;;;;12.05;9.52;;;;;;;21.50;54.64;100346.50;5071748;28;20047;-22
2021/08/23 01:37:04;;;;;;;13.13;9.10;;;;;;;21.07;55.80;100351.69;5072113;28;20392;-22
2021/08/23 01:39:32;;;;;;;13.18;8.98;;;;;;;20.58;57.29;100352.50;5071524;28;20020;-22
2021/08/23 01:41:58;;;;;;;12.25;8.05;;;;;;;19.74;59.83;100338.69;5089042;28;20089;-22
2021/08/23 01:44:24;;;;;;;11.35;7.47;;;;;;;19.31;60.67;100346.25;5071410;28;20024;-22
2021/08/23 01:46:49;;;;;;;17.90;8.55;;;;;;;19.44;60.71;100356.53;5089477;28;20031;-23
2021/08/23 01:49:15;;;;;;;13.00;8.52;;;;;;;20.02;59.15;100354.34;5089380;28;20039;-22
2021/08/23 01:51:40;;;;;;;12.40;8.32;;;;;;;20.39;57.99;100346.88;5089355;28;20039;-22
2021/08/23 01:54:06;;;;;;;10.63;8.82;;;;;;;20.82;56.70;100337.22;5089308;28;20431;-22
2021/08/23 01:56:31;;;;;;;11.63;8.30;;;;;;;20.77;56.91;100345.38;5089617;28;20036;-22
2021/08/23 01:59:00;;;;;;;10.65;7.95;;;;;;;20.78;56.84;100329.91;5090561;28;20044;-22
2021/08/23 02:01:27;;;;;;;13.02;9.07;;;;;;;20.92;56.88;100346.34;5089728;28;20072;-22
2021/08/23 02:03:52;;;;;;;12.07;8.45;;;;;;;20.56;57.97;100363.59;5089215;28;20028;-22
2021/08/23 02:06:18;;;;;;;11.98;8.43;;;;;;;20.19;59.34;100353.19;5089403;28;20036;-22
2021/08/23 02:08:44;;;;;;;10.45;8.18;;;;;;;20.36;58.57;100361.78;5089440;28;20067;-22
2021/08/23 02:11:09;;;;;;;10.07;7.82;;;;;;;19.38;61.66;100357.59;5089297;28;20480;-22
2021/08/23 02:13:35;;;;;;;12.43;8.27;;;;;;;19.32;62.02;100353.28;5089148;28;20036;-22
2021/08/23 02:16:00;;;;;;;9.45;7.43;;;;;;;19.66;60.96;100353.53;5089173;28;20035;-22
2021/08/23 02:18:26;;;;;;;11.02;8.13;;;;;;;19.73;60.41;100353.28;5089466;28;20032;-22
2021/08/23 02:20:51;;;;;;;10.68;8.30;;;;;;;19.37;62.12;100355.97;5088876;28;20109;-22
2021/08/23 02:23:17;;;;;;;10.85;8.07;;;;;;;19.56;61.16;100354.34;5089508;28;20040;-22
2021/08/23 02:25:42;;;;;;;11.43;7.90;;;;;;;19.65;60.65;100344.59;5089180;28;20487;-22
2021/08/23 02:28:08;;;;;;;11.05;8.15;;;;;;;19.78;60.36;100339.78;5088592;28;20028;-21
2021/08/23 02:30:34;;;;;;;12.07;8.10;;;;;;;19.12;62.93;100351.38;5088857;28;20028;-22
2021/08/23 02:32:59;;;;;;;11.63;7.70;;;;;;;19.01;63.09;100350.56;5088616;28;20102;-22
2021/08/23 02:35:25;;;;;;;14.55;8.27;;;;;;;18.91;63.80;100347.81;5090535;28;20032;-22
2021/08/23 02:37:50;;;;;;;16.65;8.95;;;;;;;18.86;64.11;100345.94;5109200;28;20032;-22
2021/08/23 02:40:16;;;;;;;14.88;9.38;;;;;;;18.73;64.84;100347.19;5090969;28;20085;-22
2021/08/23 02:42:41;;;;;;;13.13;8.43;;;;;;;18.44;64.25;100352.25;5109125;28;20108;-22
2021/08/23 02:45:07;;;;;;;13.00;7.95;;;;;;;18.46;64.13;100334.69;5109179;28;20071;-22
2021/08/23 02:47:36;;;;;;;11.85;8.50;;;;;;;19.05;62.47;100354.34;5108824;28;20054;-22
2021/08/23 02:50:04;;;;;;;130.55;59.78;;;;;;;19.68;60.85;100335.16;5090657;28;20621;-22
2021/08/23 02:52:30;;;;;;;11.82;9.57;;;;;;;19.96;60.27;100352.72;5108468;28;20027;-22
2021/08/23 02:54:55;;;;;;;14.85;9.98;;;;;;;19.91;60.30;100349.22;5108449;28;20047;-22
2021/08/23 02:57:21;;;;;;;12.75;9.05;;;;;;;19.43;61.77;100349.47;5108858;28;20031;-22
2021/08/23 02:59:46;;;;;;;13.48;8.38;;;;;;;18.70;63.32;100336.94;5108279;28;20059;-22
2021/08/23 03:02:12;;;;;;;10.13;8.07;;;;;;;18.20;64.58;100349.16;5108331;28;20032;-22
2021/08/23 03:04:37;;;;;;;12.90;8.27;;;;;;;18.41;63.69;100352.78;5108639;28;20032;-22
2021/08/23 03:07:03;;;;;;;21.83;9.63;;;;;;;18.87;62.68;100340.25;5108509;28;20054;-23
2021/08/23 03:09:28;;;;;;;12.63;9.88;;;;;;;18.82;63.65;100356.47;5108473;28;20081;-22
2021/08/23 03:11:54;;;;;;;14.98;10.60;;;;;;;18.48;64.74;100356.84;5108720;28;20036;-22
2021/08/23 03:14:19;;;;;;;15.25;10.40;;;;;;;18.48;65.37;100356.03;5107854;28;20039;-22
2021/08/23 03:16:45;;;;;;;14.00;10.90;;;;;;;18.52;65.04;100359.03;5108296;28;20484;-22
2021/08/23 03:19:10;;;;;;;13.57;10.35;;;;;;;18.61;64.72;100343.94;5089881;28;20030;-22
2021/08/23 03:21:36;;;;;;;27.52;11.60;;;;;;;19.04;63.30;100347.28;5108207;28;20495;-22
2021/08/23 03:24:01;;;;;;;16.08;10.73;;;;;;;19.09;63.36;100357.31;5108115;28;20031;-22
2021/08/23 03:26:27;;;;;;;13.70;10.63;;;;;;;19.25;62.34;100348.94;5108335;28;20861;-22
2021/08/23 03:28:52;;;;;;;15.35;11.05;;;;;;;19.28;61.69;100337.59;5108324;28;20035;-22
2021/08/23 03:31:18;;;;;;;12.63;10.23;;;;;;;18.65;64.13;100351.25;5108006;28;20487;-22
2021/08/23 03:33:43;;;;;;;30.55;11.77;;;;;;;18.85;63.71;100361.31;5108128;28;20033;-22
2021/08/23 03:36:09;;;;;;;16.80;9.93;;;;;;;18.17;65.46;100334.31;5107697;28;20034;-22
2021/08/23 03:38:34;;;;;;;13.80;8.38;;;;;;;18.47;63.09;100360.63;5108461;28;20023;-22
2021/08/23 03:41:00;;;;;;;16.65;9.30;;;;;;;18.47;62.41;100349.84;5106910;28;20495;-22
2021/08/23 03:43:25;;;;;;;13.10;8.23;;;;;;;17.87;63.74;100356.53;5106297;28;20035;-27
2021/08/23 03:45:51;;;;;;;23.23;9.95;;;;;;;17.74;65.28;100359.69;5106677;28;20028;-23
2021/08/23 03:48:16;;;;;;;12.13;9.20;;;;;;;17.63;66.35;100372.25;5106971;28;20044;-22
2021/08/23 03:50:42;;;;;;;17.40;9.50;;;;;;;17.52;66.63;100365.97;5107725;28;20032;-23
2021/08/23 03:53:07;;;;;;;15.73;9.77;;;;;;;17.23;66.59;100355.50;5106687;28;20452;-21
2021/08/23 03:55:33;;;;;;;23.35;9.88;;;;;;;17.12;67.06;100356.47;5105720;28;20028;-22
2021/08/23 03:57:58;;;;;;;16.80;9.70;;;;;;;17.04;67.19;100348.81;5105909;28;20046;-22
2021/08/23 04:00:24;;;;;;;18.27;9.70;;;;;;;17.10;67.21;100347.84;5105396;28;20048;-22
2021/08/23 04:02:49;;;;;;;15.52;9.82;;;;;;;17.37;66.74;100349.69;5105723;28;20110;-22
2021/08/23 04:05:15;;;;;;;13.93;9.65;;;;;;;17.87;65.10;100351.94;5105227;28;20076;-22
2021/08/23 04:07:40;;;;;;;15.18;10.82;;;;;;;18.02;64.83;100345.84;5106153;28;20148;-22
2021/08/23 04:10:07;;;;;;;13.27;10.40;;;;;;;17.94;65.21;100350.91;5107562;28;20398;-22
2021/08/23 04:12:32;;;;;;;14.52;9.98;;;;;;;17.82;65.30;100348.41;5107676;28;20019;-22
2021/08/23 04:14:59;;;;;;;12.85;10.80;;;;;;;17.67;65.96;100357.19;5107557;28;20042;-22
2021/08/23 04:17:25;;;;;;;16.57;10.10;;;;;;;17.47;66.74;100341.69;5107674;28;20086;-22
2021/08/23 04:19:50;;;;;;;15.68;11.13;;;;;;;17.77;65.69;100351.03;5107346;28;20566;-22
2021/08/23 04:22:16;;;;;;;17.77;11.52;;;;;;;18.47;63.40;100335.53;5107116;28;20031;-22
2021/08/23 04:24:41;;;;;;;15.65;11.18;;;;;;;18.28;64.39;100351.38;5089168;28;20035;-22
2021/08/23 04:27:07;;;;;;;16.35;11.02;;;;;;;18.06;66.11;100355.06;5107479;28;20028;-22
2021/08/23 04:29:32;;;;;;;16.13;11.10;;;;;;;17.90;66.33;100350.63;5107398;28;20027;-22
2021/08/23 04:31:58;;;;;;;14.70;11.65;;;;;;;18.07;65.48;100343.16;5107293;28;20059;-22
2021/08/23 04:34:23;;;;;;;17.75;11.23;;;;;;;18.76;63.85;100348.59;5107084;28;20431;-22
2021/08/23 04:36:49;;;;;;;18.50;11.07;;;;;;;19.37;61.62;100362.22;5107529;28;20040;-22
2021/08/23 04:39:14;;;;;;;18.15;12.07;;;;;;;19.04;62.94;100336.47;5107944;28;20035;-22
2021/08/23 04:41:41;;;;;;;18.30;11.70;;;;;;;19.74;60.94;100355.72;5107385;28;20031;-22
2021/08/23 04:44:06;;;;;;;17.13;11.35;;;;;;;19.92;60.43;100359.75;5088734;28;20054;-22
2021/08/23 04:46:32;;;;;;;19.92;11.75;;;;;;;19.97;60.49;100370.56;5107255;28;20554;-22
2021/08/23 04:48:58;;;;;;;22.48;13.00;;;;;;;19.95;60.22;100361.91;5107246;28;20020;-22
2021/08/23 04:51:23;;;;;;;17.95;11.98;;;;;;;20.41;59.20;100369.91;5107571;28;20044;-22
2021/08/23 04:53:49;;;;;;;16.77;11.63;;;;;;;20.11;60.23;100361.88;5107350;28;20036;-22
2021/08/23 04:56:15;;;;;;;17.45;11.73;;;;;;;20.50;59.32;100364.72;5106767;28;20037;-22
2021/08/23 04:58:41;;;;;;;19.58;11.90;;;;;;;20.62;59.56;100375.28;5106755;28;20556;-22
2021/08/23 05:01:06;;;;;;;20.42;11.73;;;;;;;20.76;59.18;100370.03;5107177;28;20032;-22
2021/08/23 05:03:32;;;;;;;12.30;9.55;;;;;;;20.58;58.96;100363.34;5106963;28;20050;-22
2021/08/23 05:05:57;;;;;;;12.57;9.02;;;;;;;20.37;59.86;100379.69;5107092;28;20107;-22
2021/08/23 05:08:23;;;;;;;12.38;9.20;;;;;;;20.73;58.92;100370.59;5106807;28;20032;-22
2021/08/23 05:10:48;;;;;;;15.32;9.75;;;;;;;20.37;59.53;100357.19;5107272;28;20073;-22
2021/08/23 05:13:14;;;;;;;13.65;9.60;;;;;;;20.62;58.88;100369.84;5106946;28;20506;-22
2021/08/23 05:15:39;;;;;;;13.10;9.43;;;;;;;20.39;59.31;100353.13;5107233;28;20054;-22
2021/08/23 05:18:05;;;;;;;13.50;9.50;;;;;;;20.56;59.55;100360.91;5110192;28;20039;-22
2021/08/23 05:20:30;;;;;;;13.70;9.05;;;;;;;20.54;59.74;100352.22;5110503;28;20024;-22
2021/08/23 05:22:56;;;;;;;12.63;9.45;;;;;;;20.64;59.84;100362.25;5110500;28;20406;-22
2021/08/23 05:25:21;;;;;;;12.18;9.35;;;;;;;20.56;59.67;100357.38;5110831;28;20039;-22
2021/08/23 05:27:47;;;;;;;13.85;9.60;;;;;;;20.51;59.76;100357.38;5110511;28;20042;-22
2021/08/23 05:30:12;;;;;;;12.75;8.95;;;;;;;20.58;59.21;100347.06;5110366;28;20139;-22
2021/08/23 05:32:38;;;;;;;15.48;10.32;;;;;;;21.11;58.28;100355.47;5110416;28;20035;-22
2021/08/23 05:35:04;;;;;;;12.25;9.65;;;;;;;20.95;57.83;100345.81;5110370;28;20042;-22
2021/08/23 05:37:29;;;;;;;15.15;9.80;;;;;;;21.24;57.46;100357.53;5110271;28;20058;-22
2021/08/23 05:39:55;;;;;;;12.88;10.50;;;;;;;21.31;56.89;100359.94;5110120;28;20262;-22
2021/08/23 05:42:20;;;;;;;13.48;9.93;;;;;;;21.41;56.94;100353.59;5110323;28;20092;-23
2021/08/23 05:44:46;;;;;;;15.48;10.80;;;;;;;21.72;56.31;100369.63;5110101;28;20042;-22
2021/08/23 05:47:11;;;;;;;15.85;10.75;;;;;;;22.18;54.20;100352.88;5110032;28;20479;-21
2021/08/23 05:49:37;;;;;;;14.23;10.38;;;;;;;22.23;53.56;100363.66;5110411;28;20051;-22
2021/08/23 05:52:02;;;;;;;12.80;10.43;;;;;;;22.54;53.23;100353.28;5109862;28;20024;-22
2021/08/23 05:54:28;;;;;;;13.95;10.90;;;;;;;22.48;53.37;100354.44;5110149;28;20056;-22
2021/08/23 05:56:56;;;;;;;15.18;10.57;;;;;;;22.45;52.33;100355.84;5109628;28;20038;-22
2021/08/23 05:59:22;;;;;;;12.10;10.27;;;;;;;22.69;51.22;100365.84;5109273;28;20090;-22
2021/08/23 06:01:52;;;;;;;16.15;11.05;;;;;;;22.55;52.32;100365.75;5109718;28;20032;-22
2021/08/23 06:04:19;;;;;;;13.75;10.38;;;;;;;22.36;52.42;100364.94;5109718;28;20856;-23
2021/08/23 06:06:45;;;;;;;13.73;10.50;;;;;;;22.20;52.44;100347.97;5110014;28;20035;-22
2021/08/23 06:09:10;;;;;;;15.63;11.13;;;;;;;22.66;51.55;100355.56;5074681;28;20031;-22
2021/08/23 06:11:36;;;;;;;16.02;11.02;;;;;;;22.95;51.00;100357.34;5109442;28;20507;-22
2021/08/23 06:14:01;;;;;;;18.13;10.93;;;;;;;22.89;51.40;100358.53;5109460;28;20038;-22
2021/08/23 06:16:27;;;;;;;15.35;10.93;;;;;;;22.46;51.93;100360.16;5109520;28;20042;-22
2021/08/23 06:18:52;;;;;;;14.07;10.63;;;;;;;22.85;52.25;100363.75;5109582;28;20092;-22
2021/08/23 06:21:18;;;;;;;13.43;9.95;;;;;;;23.05;52.14;100357.22;5109494;28;20036;-22
2021/08/23 06:23:43;;;;;;;19.10;10.65;;;;;;;22.74;51.72;100357.63;5109345;28;20042;-22
2021/08/23 06:26:09;;;;;;;14.35;10.65;;;;;;;22.78;52.31;100361.38;5090682;28;20028;-23
2021/08/23 06:28:34;;;;;;;14.75;10.77;;;;;;;23.15;51.08;100367.94;5109158;28;20386;-22
2021/08/23 06:31:00;;;;;;;15.77;11.30;;;;;;;23.19;51.38;100351.81;5109218;28;20024;-22
2021/08/23 06:33:25;;;;;;;16.30;12.65;;;;;;;23.43;50.57;100362.59;5109190;28;20035;-22
2021/08/23 06:35:51;;;;;;;11.90;9.75;;;;;;;23.54;50.99;100358.59;5109050;28;20050;-23
2021/08/23 06:38:16;;;;;;;15.40;10.73;;;;;;;23.43;51.44;100363.41;5108690;28;20089;-22
2021/08/23 06:40:42;;;;;;;16.10;10.80;;;;;;;23.25;51.45;100345.19;5108566;28;20775;-22
2021/08/23 06:43:07;;;;;;;19.10;12.73;;;;;;;23.37;51.80;100363.78;5099812;28;20040;-22
2021/08/23 06:45:32;;;;;;;15.98;11.52;;;;;;;23.36;51.83;100340.41;5088563;28;20093;-22
2021/08/23 06:47:58;;;;;;;14.35;10.13;;;;;;;23.46;51.97;100362.00;5088511;28;20028;-22
2021/08/23 06:50:23;;;;;;;15.48;10.68;;;;;;;23.65;51.14;100354.59;5088543;28;20074;-23
2021/08/23 06:52:49;;;;;;;15.25;11.18;;;;;;;24.00;50.05;100363.25;5088771;28;20032;-22
2021/08/23 06:55:14;;;;;;;19.08;11.02;;;;;;;23.96;49.42;100358.72;5070245;28;20043;-22
2021/08/23 06:57:40;;;;;;;14.15;11.27;;;;;;;24.07;49.58;100357.41;5088230;28;20032;-22
2021/08/23 07:00:06;;;;;;;15.95;12.20;;;;;;;24.33;49.79;100357.69;5087886;28;20573;-22
2021/08/23 07:02:31;;;;;;;15.90;11.27;;;;;;;24.49;48.64;100349.22;5088345;28;20031;-22
2021/08/23 07:04:57;;;;;;;31.67;23.35;;;;;;;24.82;47.97;100347.94;5088151;28;20058;-22
2021/08/23 07:07:22;;;;;;;16.27;12.48;;;;;;;24.85;47.91;100346.53;5095854;28;20035;-22
2021/08/23 07:09:48;;;;;;;18.80;14.73;;;;;;;24.80;47.92;100350.16;5105360;28;20031;-22
2021/08/23 07:12:13;;;;;;;15.93;11.98;;;;;;;24.83;48.16;100355.03;5108326;28;20377;-22
2021/08/23 07:14:39;;;;;;;12.95;10.35;;;;;;;24.83;48.16;100354.22;5108431;28;20031;-22
2021/08/23 07:17:05;;;;;;;14.27;9.60;;;;;;;24.81;47.72;100362.69;5108362;28;20043;-22
2021/08/23 07:19:30;;;;;;;11.68;9.70;;;;;;;24.75;48.36;100350.28;5108040;28;20038;-22
2021/08/23 07:21:56;;;;;;;15.05;10.35;;;;;;;24.99;48.29;100354.69;5108017;28;20023;-22
2021/08/23 07:24:21;;;;;;;13.40;9.85;;;;;;;25.05;47.75;100348.00;5108065;28;20475;-22
2021/08/23 07:26:47;;;;;;;15.90;11.60;;;;;;;25.59;47.10;100348.84;5108254;28;20031;-22
2021/08/23 07:29:13;;;;;;;12.80;9.48;;;;;;;25.79;46.70;100354.91;5108200;28;20039;-22
2021/08/23 07:31:39;;;;;;;12.65;10.18;;;;;;;25.71;46.71;100344.75;5108111;28;20024;-22
2021/08/23 07:34:05;;;;;;;15.32;10.52;;;;;;;25.93;46.45;100352.09;5107761;28;20079;-22
2021/08/23 07:36:30;;;;;;;14.88;9.77;;;;;;;25.97;45.69;100351.16;5108155;28;20035;-22
2021/08/23 07:38:56;;;;;;;13.10;9.65;;;;;;;26.28;45.89;100361.22;5107480;28;20483;-22
2021/08/23 07:41:21;;;;;;;14.25;9.20;;;;;;;25.95;45.69;100350.66;5107859;28;20035;-22
2021/08/23 07:43:47;;;;;;;12.20;9.00;;;;;;;25.93;46.01;100344.72;5107830;28;20031;-22
2021/08/23 07:46:12;;;;;;;11.70;8.50;;;;;;;26.10;45.48;100348.63;5107597;28;20039;-22
2021/08/23 07:48:38;;;;;;;10.93;8.40;;;;;;;26.32;44.72;100354.00;5089654;28;20032;-22
2021/08/23 07:51:03;;;;;;;12.02;9.05;;;;;;;26.13;44.74;100345.25;5107970;28;20470;-22
2021/08/23 07:53:29;;;;;;;13.40;8.50;;;;;;;26.15;44.62;100354.75;5107625;28;20411;-22
2021/08/23 07:55:54;;;;;;;13.35;8.13;;;;;;;26.26;44.70;100352.53;5108203;28;20040;-22
2021/08/23 07:58:20;;;;;;;11.40;8.75;;;;;;;26.57;44.17;100348.91;5106849;28;20031;-22
2021/08/23 08:00:46;;;;;;;11.20;8.05;;;;;;;26.84;43.05;100326.72;5107602;28;20027;-22
2021/08/23 08:03:11;;;;;;;9.73;8.45;;;;;;;26.80;42.59;100333.97;5107984;28;20085;-22
2021/08/23 08:05:40;;;;;;;10.43;7.75;;;;;;;26.95;43.39;100342.84;5108028;28;20031;-22
2021/08/23 08:08:06;;;;;;;11.40;8.10;;;;;;;27.21;42.23;100324.44;5107279;28;20465;-22
2021/08/23 08:10:32;;;;;;;13.07;8.18;;;;;;;27.38;41.73;100328.31;5089493;28;20042;-22
2021/08/23 08:12:57;;;;;;;9.80;7.82;;;;;;;27.36;42.19;100319.63;5089410;28;20031;-21
2021/08/23 08:15:23;;;;;;;10.23;7.25;;;;;;;27.44;40.57;100329.75;5108002;28;20395;-22
2021/08/23 08:17:48;;;;;;;9.45;7.60;;;;;;;27.42;41.03;100334.75;5107661;28;20032;-22
2021/08/23 08:20:14;;;;;;;10.23;8.13;;;;;;;27.70;39.94;100334.34;5107252;28;20030;-22
2021/08/23 08:22:39;;;;;;;11.95;7.22;;;;;;;27.62;41.74;100333.25;5107189;28;20096;-22
2021/08/23 08:25:06;;;;;;;9.63;6.97;;;;;;;28.07;39.23;100332.78;5107091;28;20032;-22
2021/08/23 08:27:31;;;;;;;11.43;6.57;;;;;;;27.91;38.13;100337.19;5107086;28;20419;-22
2021/08/23 08:29:56;;;;;;;7.90;6.15;;;;;;;27.63;38.46;100327.44;5107336;28;20487;-22
2021/08/23 08:32:22;;;;;;;9.35;6.32;;;;;;;28.00;35.70;100322.31;5107434;28;20046;-22
2021/08/23 08:34:47;;;;;;;7.53;4.82;;;;;;;28.47;34.50;100320.63;5107479;28;20036;-22
2021/08/23 08:37:13;;;;;;;6.80;4.38;;;;;;;28.19;31.49;100318.38;5107218;28;20483;-23
2021/08/23 08:39:40;;;;;;;7.43;5.00;;;;;;;28.56;31.85;100311.19;5107295;28;20024;-24
2021/08/23 08:42:06;;;;;;;6.60;4.88;;;;;;;28.45;29.35;100304.47;5106965;28;20043;-23
2021/08/23 08:44:33;;;;;;;6.95;4.82;;;;;;;27.92;33.64;100305.94;5107257;28;20056;-22
2021/08/23 08:46:58;;;;;;;9.10;6.20;;;;;;;28.36;33.33;100307.28;5107309;28;20032;-22
2021/08/23 08:49:24;;;;;;;7.93;5.80;;;;;;;28.87;33.79;100292.72;5072564;28;20035;-22
2021/08/23 08:51:49;;;;;;;7.70;5.75;;;;;;;28.56;35.86;100300.22;5075682;28;20061;-22
2021/08/23 08:54:15;;;;;;;7.75;5.88;;;;;;;28.56;35.80;100282.97;5110780;28;20031;-22
2021/08/23 08:56:40;;;;;;;7.78;5.72;;;;;;;29.08;34.96;100288.00;5111041;28;20050;-22
2021/08/23 08:59:06;;;;;;;7.20;5.45;;;;;;;29.36;33.70;100281.91;5110732;28;20518;-22
2021/08/23 09:01:31;;;;;;;9.05;6.13;;;;;;;28.94;33.76;100284.75;5110906;28;20043;-22
2021/08/23 09:04:01;;;;;;;10.13;6.30;;;;;;;28.76;34.93;100286.84;5110744;28;20043;-22
2021/08/23 09:06:26;;;;;;;9.93;6.13;;;;;;;28.51;36.20;100269.47;5110736;28;20032;-22
2021/08/23 09:08:52;;;;;;;9.13;5.82;;;;;;;28.92;34.39;100278.78;5110924;28;20038;-21
2021/08/23 09:11:18;;;;;;;9.25;6.22;;;;;;;29.18;34.13;100281.31;5110966;28;20101;-22
2021/08/23 09:14:04;;;;;;;12.32;6.65;;;;;;;29.45;34.07;100272.44;5110805;28;20036;-22
2021/08/23 09:16:31;;;;;;;8.18;5.78;;;;;;;29.23;32.62;100272.84;5110671;28;20403;-22
2021/08/23 09:18:56;;;;;;;7.83;5.90;;;;;;;29.30;33.72;100261.28;5110570;28;20059;-22
2021/08/23 09:21:29;;;;;;;7.53;5.82;;;;;;;29.69;30.88;100273.59;5110814;28;20495;-23
2021/08/23 09:23:57;;;;;;;8.98;5.90;;;;;;;29.93;30.24;100267.31;5092361;28;20031;-22
2021/08/23 09:26:23;;;;;;;9.05;5.57;;;;;;;30.17;30.17;100276.69;5110315;28;20031;-22
2021/08/23 09:28:56;;;;;;;8.98;6.10;;;;;;;30.60;31.46;100278.78;5110538;28;20107;-22
2021/08/23 09:31:29;;;;;;;7.68;5.60;;;;;;;30.46;30.75;100267.38;5110510;28;20032;-22
2021/08/23 09:34:00;;;;;;;9.80;5.47;;;;;;;30.11;30.46;100262.38;5110445;28;20570;-22
2021/08/23 09:36:25;;;;;;;7.28;5.53;;;;;;;30.35;30.45;100255.25;5110181;28;20042;-22
2021/08/23 09:38:59;;;;;;;6.97;4.97;;;;;;;30.40;29.88;100253.06;5110670;28;20024;-22
2021/08/23 09:41:25;;;;;;;8.95;5.07;;;;;;;30.19;31.30;100253.19;5110319;28;20522;-22
2021/08/23 09:44:05;;;;;;;8.30;5.32;;;;;;;30.55;29.30;100246.03;5091966;28;20040;-22
2021/08/23 09:46:32;;;;;;;8.98;5.60;;;;;;;31.02;29.76;100245.38;5110189;28;20066;-22
2021/08/23 09:48:58;;;;;;;7.85;5.07;;;;;;;31.39;28.45;100233.31;5110046;28;20066;-22
2021/08/23 09:51:27;;;;;;;7.70;4.93;;;;;;;30.86;27.71;100235.47;5109983;28;20036;-22
2021/08/23 09:54:11;;;;;;;6.95;5.13;;;;;;;30.71;28.26;100237.81;5110429;28;20054;-22
2021/08/23 09:56:49;;;;;;;17.52;6.40;;;;;;;30.75;29.34;100230.47;5110104;28;20411;-22
2021/08/23 09:59:19;;;;;;;7.82;5.50;;;;;;;31.41;27.60;100236.53;5109720;28;20096;-22
2021/08/23 10:01:45;;;;;;;8.27;5.72;;;;;;;31.23;28.87;100231.34;5109153;28;20122;-22
2021/08/23 10:04:11;;;;;;;7.22;4.50;;;;;;;31.32;27.68;100214.63;5109459;28;20054;-22
2021/08/23 10:06:38;;;;;;;6.65;5.10;;;;;;;31.23;28.28;100223.09;5109941;28;20725;-22
2021/08/23 10:09:04;;;;;;;9.15;5.07;;;;;;;31.75;28.79;100228.69;5109629;28;20028;-22
2021/08/23 10:11:33;;;;;;;6.80;5.30;;;;;;;31.27;27.74;100223.19;5091346;28;20044;-22
2021/08/23 10:13:59;;;;;;;9.32;4.90;;;;;;;31.59;26.93;100217.69;5109491;28;20530;-22
2021/08/23 10:16:25;;;;;;;7.03;4.82;;;;;;;31.71;25.73;100214.84;5109292;28;20063;-22
2021/08/23 10:18:50;;;;;;;8.00;4.70;;;;;;;31.60;26.07;100208.25;5091425;28;20028;-22
2021/08/23 10:21:16;;;;;;;5.95;4.50;;;;;;;31.92;27.70;100206.25;5074407;28;20035;-22
2021/08/23 10:23:42;;;;;;;6.15;4.72;;;;;;;32.23;26.40;100207.31;5091089;28;20031;-22
2021/08/23 10:26:07;;;;;;;7.47;4.72;;;;;;;32.68;26.06;100205.09;5090916;28;20421;-22
2021/08/23 10:28:37;;;;;;;6.75;4.18;;;;;;;32.56;24.34;100209.59;5109372;28;20823;-22
2021/08/23 10:31:09;;;;;;;5.93;4.03;;;;;;;32.35;23.85;100193.38;5109161;28;20059;-23
2021/08/23 10:33:39;;;;;;;9.38;3.83;;;;;;;31.96;25.31;100201.59;5108989;28;20082;-22
2021/08/23 10:36:07;;;;;;;5.75;3.70;;;;;;;31.75;25.97;100192.84;5108585;28;20074;-22
2021/08/23 10:38:32;;;;;;;5.03;3.72;;;;;;;32.01;25.84;100195.03;5109074;28;20027;-21
2021/08/23 10:41:10;;;;;;;6.35;3.60;;;;;;;31.77;25.15;100196.03;5108752;28;20057;-22
2021/08/23 10:43:52;;;;;;;5.85;3.70;;;;;;;31.58;25.19;100189.31;5108968;28;20023;-22
2021/08/23 10:46:26;;;;;;;8.25;3.90;;;;;;;31.95;25.34;100186.19;5108532;28;20039;-22
2021/08/23 10:48:52;;;;;;;6.32;3.63;;;;;;;32.68;23.61;100189.31;5109001;28;20051;-22
2021/08/23 10:51:37;;;;;;;5.65;3.72;;;;;;;32.85;25.08;100188.03;5108855;28;20036;-22
2021/08/23 10:54:08;;;;;;;5.88;3.97;;;;;;;32.55;24.83;100191.44;5108624;28;20034;-21
2021/08/23 10:56:38;;;;;;;4.88;3.80;;;;;;;32.49;24.98;100183.75;5109011;28;20031;-21
2021/08/23 10:59:16;;;;;;;6.22;4.13;;;;;;;32.68;23.43;100177.47;5108415;28;20126;-22
2021/08/23 11:01:57;;;;;;;5.70;3.88;;;;;;;33.03;23.54;100182.81;5108576;28;20106;-22
2021/08/23 11:04:31;;;;;;;8.02;3.65;;;;;;;33.88;23.81;100179.84;5108346;28;20031;-22
2021/08/23 11:06:56;;;;;;;5.30;3.53;;;;;;;32.90;22.93;100168.41;5108591;28;20088;-22
2021/08/23 11:09:33;;;;;;;7.13;3.72;;;;;;;33.07;22.74;100167.09;5108806;28;20024;-22
2021/08/23 11:12:25;;;;;;;6.18;3.88;;;;;;;33.71;22.17;100172.09;5108422;28;20055;-22
2021/08/23 11:14:52;;;;;;;6.07;3.83;;;;;;;33.72;23.19;100157.09;5102973;28;20110;-21
2021/08/23 11:17:31;;;;;;;5.78;3.70;;;;;;;33.80;21.68;100159.59;5108384;28;20027;-21